createdAt,value
2017-08-30T00:01:29.649Z,34.43
2017-08-30T00:03:57.110Z,39.57
2017-08-30T00:06:24.838Z,29.17
2017-08-30T00:08:52.507Z,22.07
2017-08-30T00:11:20.321Z,28.20
2017-08-30T00:13:48.268Z,29.23
2017-08-30T00:16:15.758Z,28.13
2017-08-30T00:18:43.272Z,34.60
2017-08-30T00:21:10.941Z,27.03
2017-08-30T00:23:38.693Z,39.33
2017-08-30T00:29:01.924Z,61.27
2017-08-30T00:31:29.721Z,38.00
2017-08-30T00:33:57.183Z,40.07
2017-08-30T00:36:24.924Z,31.97
2017-08-30T00:38:52.725Z,30.73
2017-08-30T00:41:20.186Z,32.33
2017-08-30T00:43:47.638Z,30.80
2017-08-30T00:46:15.119Z,25.57
2017-08-30T00:48:42.587Z,28.20
2017-08-30T00:51:10.312Z,33.03
2017-08-30T00:53:38.207Z,32.80
2017-08-30T00:56:05.730Z,36.93
2017-08-30T00:58:33.354Z,37.13
2017-08-30T01:01:01.048Z,40.67
2017-08-30T01:03:28.818Z,29.40
2017-08-30T01:05:56.514Z,36.70
2017-08-30T01:08:24.337Z,33.03
2017-08-30T01:10:52.176Z,30.13
2017-08-30T01:13:19.804Z,28.90
2017-08-30T01:15:47.676Z,32.17
2017-08-30T01:18:15.559Z,32.47
2017-08-30T01:20:43.567Z,36.17
2017-08-30T01:23:11.393Z,32.70
2017-08-30T01:25:39.170Z,31.83
2017-08-30T01:28:07.095Z,32.73
2017-08-30T01:30:34.580Z,35.50
2017-08-30T01:33:02.036Z,28.70
2017-08-30T01:35:29.503Z,34.90
2017-08-30T01:37:56.992Z,30.50
2017-08-30T01:40:24.454Z,31.50
2017-08-30T01:42:51.934Z,32.50
2017-08-30T01:45:19.426Z,23.40
2017-08-30T01:47:46.886Z,47.97
2017-08-30T01:50:14.342Z,38.33
2017-08-30T01:52:41.828Z,37.27
2017-08-30T01:55:09.291Z,25.87
2017-08-30T01:57:36.750Z,31.00
2017-08-30T02:00:04.235Z,32.93
2017-08-30T02:02:31.690Z,31.53
2017-08-30T02:04:59.150Z,35.40
2017-08-30T02:07:26.634Z,39.23
2017-08-30T02:09:54.095Z,41.90
2017-08-30T02:12:21.549Z,34.77
2017-08-30T02:14:49.045Z,40.30
2017-08-30T02:17:16.506Z,31.80
2017-08-30T02:19:43.971Z,26.00
2017-08-30T02:22:11.466Z,32.20
2017-08-30T02:24:38.923Z,34.70
2017-08-30T02:27:06.386Z,32.10
2017-08-30T02:29:33.865Z,30.30
2017-08-30T02:32:01.323Z,37.10
2017-08-30T02:34:28.788Z,45.23
2017-08-30T02:36:56.270Z,48.83
2017-08-30T02:39:23.726Z,61.30
2017-08-30T02:41:51.188Z,89.33
2017-08-30T02:44:18.686Z,61.60
2017-08-30T02:46:46.148Z,55.10
2017-08-30T02:49:13.606Z,47.87
2017-08-30T02:51:41.224Z,52.87
2017-08-30T02:54:08.679Z,46.83
2017-08-30T02:56:36.139Z,42.70
2017-08-30T02:59:03.626Z,40.10
2017-08-30T03:01:31.090Z,44.80
2017-08-30T03:03:58.551Z,39.77
2017-08-30T03:06:26.036Z,37.57
2017-08-30T03:08:53.519Z,43.07
2017-08-30T03:11:20.974Z,34.00
2017-08-30T03:13:48.459Z,43.67
2017-08-30T03:16:15.922Z,32.87
2017-08-30T03:18:43.386Z,40.17
2017-08-30T03:21:10.878Z,43.27
2017-08-30T03:23:38.336Z,39.27
2017-08-30T03:26:05.798Z,45.13
2017-08-30T03:28:33.282Z,56.07
2017-08-30T03:31:00.753Z,40.20
2017-08-30T03:33:28.218Z,38.47
2017-08-30T03:35:55.819Z,41.43
2017-08-30T03:38:23.282Z,44.07
2017-08-30T03:40:50.739Z,40.43
2017-08-30T03:43:18.225Z,38.40
2017-08-30T03:45:45.690Z,46.03
2017-08-30T03:48:13.187Z,40.33
2017-08-30T03:50:40.670Z,43.50
2017-08-30T03:53:08.139Z,42.80
2017-08-30T03:55:35.598Z,46.13
2017-08-30T03:58:03.087Z,55.37
2017-08-30T04:00:30.550Z,62.77
2017-08-30T04:02:58.006Z,47.90
2017-08-30T04:05:25.490Z,39.33
2017-08-30T04:07:52.951Z,39.87
2017-08-30T04:10:20.410Z,37.00
2017-08-30T04:12:47.890Z,46.33
2017-08-30T04:15:15.355Z,45.77
2017-08-30T04:17:42.814Z,44.60
2017-08-30T04:20:10.311Z,40.90
2017-08-30T04:22:37.782Z,36.13
2017-08-30T04:25:05.243Z,37.60
2017-08-30T04:27:32.726Z,33.40
2017-08-30T04:30:00.183Z,32.63
2017-08-30T04:32:27.651Z,35.50
2017-08-30T04:34:55.129Z,33.70
2017-08-30T04:37:22.594Z,32.47
2017-08-30T04:39:50.054Z,49.57
2017-08-30T04:42:17.540Z,40.83
2017-08-30T04:44:45.004Z,57.93
2017-08-30T04:47:12.464Z,64.03
2017-08-30T04:49:39.953Z,92.00
2017-08-30T04:52:07.418Z,74.63
2017-08-30T04:54:34.886Z,92.97
2017-08-30T04:57:02.374Z,102.23
2017-08-30T04:59:29.838Z,93.20
2017-08-30T05:01:57.298Z,66.60
2017-08-30T05:04:24.790Z,60.83
2017-08-30T05:06:52.246Z,59.10
2017-08-30T05:09:19.706Z,46.10
2017-08-30T05:11:47.195Z,43.50
2017-08-30T05:14:14.651Z,44.90
2017-08-30T05:16:42.107Z,46.63
2017-08-30T05:19:09.595Z,52.33
2017-08-30T05:21:37.055Z,43.97
2017-08-30T05:24:04.524Z,40.30
2017-08-30T05:26:32.010Z,36.63
2017-08-30T05:28:59.471Z,42.83
2017-08-30T05:31:26.997Z,40.83
2017-08-30T05:33:54.487Z,45.50
2017-08-30T05:36:21.945Z,49.10
2017-08-30T05:38:49.406Z,43.50
2017-08-30T05:41:16.895Z,38.93
2017-08-30T05:43:44.353Z,40.07
2017-08-30T05:46:11.806Z,46.87
2017-08-30T05:48:39.287Z,43.73
2017-08-30T05:51:06.747Z,29.70
2017-08-30T05:53:34.202Z,36.20
2017-08-30T05:56:01.794Z,38.70
2017-08-30T05:58:29.263Z,41.23
2017-08-30T06:00:56.726Z,37.93
2017-08-30T06:03:24.212Z,33.90
2017-08-30T06:05:51.670Z,38.27
2017-08-30T06:08:19.129Z,39.87
2017-08-30T06:10:46.614Z,44.27
2017-08-30T06:13:14.070Z,36.07
2017-08-30T06:15:41.594Z,35.83
2017-08-30T06:18:09.079Z,49.53
2017-08-30T06:20:36.535Z,40.13
2017-08-30T06:23:03.994Z,43.17
2017-08-30T06:25:31.486Z,40.97
2017-08-30T06:27:58.947Z,36.47
2017-08-30T06:30:26.407Z,41.63
2017-08-30T06:32:53.887Z,36.93
2017-08-30T06:35:21.341Z,38.90
2017-08-30T06:37:48.802Z,48.40
2017-08-30T06:40:16.283Z,31.73
2017-08-30T06:42:43.743Z,32.37
2017-08-30T06:45:11.220Z,36.20
2017-08-30T06:47:38.703Z,39.83
2017-08-30T06:50:06.159Z,35.60
2017-08-30T06:52:33.614Z,47.80
2017-08-30T06:55:01.349Z,41.73
2017-08-30T06:57:28.814Z,29.70
2017-08-30T06:59:56.275Z,32.50
2017-08-30T07:02:23.755Z,53.67
2017-08-30T07:04:51.218Z,41.80
2017-08-30T07:07:18.678Z,31.70
2017-08-30T07:09:46.154Z,39.50
2017-08-30T07:12:13.617Z,38.20
2017-08-30T07:14:41.078Z,37.10
2017-08-30T07:17:08.563Z,34.70
2017-08-30T07:19:36.029Z,34.73
2017-08-30T07:22:03.499Z,43.23
2017-08-30T07:24:30.994Z,53.77
2017-08-30T07:26:58.471Z,36.87
2017-08-30T07:29:25.934Z,47.40
2017-08-30T07:31:53.414Z,37.70
2017-08-30T07:34:20.879Z,41.70
2017-08-30T07:36:48.334Z,38.40
2017-08-30T07:39:15.822Z,40.90
2017-08-30T07:41:43.282Z,32.73
2017-08-30T07:44:10.734Z,38.40
2017-08-30T07:46:38.213Z,39.63
2017-08-30T07:49:05.674Z,41.53
2017-08-30T07:51:33.131Z,37.07
2017-08-30T07:54:00.618Z,32.33
2017-08-30T07:56:28.083Z,41.83
2017-08-30T07:58:55.539Z,48.07
2017-08-30T08:01:23.020Z,46.70
2017-08-30T08:03:50.475Z,47.23
2017-08-30T08:06:17.940Z,35.80
2017-08-30T08:08:45.421Z,32.53
2017-08-30T08:11:12.878Z,36.13
2017-08-30T08:13:40.339Z,35.83
2017-08-30T08:16:07.828Z,38.57
2017-08-30T08:18:35.291Z,34.03
2017-08-30T08:21:02.754Z,32.60
2017-08-30T08:23:30.229Z,40.97
2017-08-30T08:25:57.686Z,39.77
2017-08-30T08:28:25.146Z,25.50
2017-08-30T08:30:52.630Z,34.70
2017-08-30T08:33:20.093Z,37.43
2017-08-30T08:35:47.558Z,30.40
2017-08-30T08:38:15.050Z,32.57
2017-08-30T08:40:42.546Z,30.07
2017-08-30T08:43:10.040Z,29.47
2017-08-30T08:45:37.555Z,33.07
2017-08-30T08:48:05.019Z,40.23
2017-08-30T08:50:32.482Z,32.00
2017-08-30T08:52:59.975Z,30.80
2017-08-30T08:55:27.434Z,26.70
2017-08-30T08:57:55.086Z,29.03
2017-08-30T09:00:22.590Z,46.97
2017-08-30T09:02:50.082Z,34.03
2017-08-30T09:05:17.555Z,29.80
2017-08-30T09:07:45.042Z,30.40
2017-08-30T09:10:12.498Z,25.20
2017-08-30T09:12:39.958Z,38.37
2017-08-30T09:15:07.479Z,37.43
2017-08-30T09:17:34.946Z,35.00
2017-08-30T09:20:02.406Z,25.97
2017-08-30T09:22:29.890Z,35.20
2017-08-30T09:24:57.370Z,33.30
2017-08-30T09:27:24.867Z,35.17
2017-08-30T09:29:52.370Z,30.03
2017-08-30T09:32:19.849Z,29.60
2017-08-30T09:34:47.326Z,20.50
2017-08-30T09:37:14.782Z,28.77
2017-08-30T09:39:42.267Z,27.67
2017-08-30T09:42:09.738Z,25.33
2017-08-30T09:44:37.198Z,28.20
2017-08-30T09:47:04.690Z,25.27
2017-08-30T09:49:32.142Z,26.50
2017-08-30T09:51:59.622Z,21.47
2017-08-30T09:54:27.104Z,29.83
2017-08-30T09:56:54.566Z,34.20
2017-08-30T09:59:22.026Z,26.07
2017-08-30T10:01:49.510Z,26.83
2017-08-30T10:04:16.975Z,29.40
2017-08-30T10:06:44.438Z,25.80
2017-08-30T10:09:11.944Z,20.73
2017-08-30T10:11:39.407Z,38.87
2017-08-30T10:14:06.867Z,34.37
2017-08-30T10:16:34.342Z,21.33
2017-08-30T10:19:01.794Z,26.43
2017-08-30T10:21:29.255Z,46.07
2017-08-30T10:23:56.742Z,35.17
2017-08-30T10:26:24.202Z,40.47
2017-08-30T10:28:51.670Z,45.47
2017-08-30T10:31:19.150Z,28.07
2017-08-30T10:33:46.635Z,31.83
2017-08-30T10:36:14.091Z,25.27
2017-08-30T10:38:41.578Z,32.83
2017-08-30T10:41:09.066Z,28.03
2017-08-30T10:43:36.536Z,26.50
2017-08-30T10:46:03.997Z,29.93
2017-08-30T10:48:31.507Z,53.80
2017-08-30T10:50:58.962Z,34.27
2017-08-30T10:53:26.427Z,21.80
2017-08-30T10:55:53.914Z,39.33
2017-08-30T10:58:21.370Z,37.93
2017-08-30T11:00:48.830Z,25.03
2017-08-30T11:03:16.310Z,22.00
2017-08-30T11:05:43.767Z,23.10
2017-08-30T11:08:11.237Z,33.17
2017-08-30T11:10:38.750Z,38.13
2017-08-30T11:13:06.235Z,30.57
2017-08-30T11:15:33.694Z,25.37
2017-08-30T11:18:01.147Z,35.73
2017-08-30T11:20:28.630Z,29.60
2017-08-30T11:22:56.098Z,21.33
2017-08-30T11:25:23.525Z,27.23
2017-08-30T11:27:51.035Z,30.03
2017-08-30T11:30:18.490Z,25.03
2017-08-30T11:32:45.950Z,23.83
2017-08-30T11:35:13.439Z,21.97
2017-08-30T11:37:40.909Z,20.17
2017-08-30T11:40:08.368Z,35.50
2017-08-30T11:42:35.868Z,23.93
2017-08-30T11:45:03.322Z,23.80
2017-08-30T11:47:30.774Z,27.40
2017-08-30T11:49:58.250Z,19.17
2017-08-30T11:52:25.706Z,30.53
2017-08-30T11:54:53.166Z,34.57
2017-08-30T11:57:20.642Z,23.80
2017-08-30T11:59:48.119Z,35.53
2017-08-30T12:02:15.581Z,33.53
2017-08-30T12:04:43.079Z,31.77
2017-08-30T12:07:10.547Z,24.73
2017-08-30T12:09:38.010Z,29.00
2017-08-30T12:12:05.499Z,15.60
2017-08-30T12:14:32.950Z,18.93
2017-08-30T12:17:00.411Z,20.77
2017-08-30T12:19:27.890Z,30.00
2017-08-30T12:21:55.369Z,30.60
2017-08-30T12:24:22.834Z,28.37
2017-08-30T12:26:50.289Z,22.60
2017-08-30T12:29:17.774Z,36.00
2017-08-30T12:31:45.232Z,35.63
2017-08-30T12:34:12.698Z,25.30
2017-08-30T12:36:45.638Z,23.20
2017-08-30T12:39:18.755Z,19.13
2017-08-30T12:41:46.266Z,24.03
2017-08-30T12:44:13.726Z,31.70
2017-08-30T12:46:41.189Z,24.73
2017-08-30T12:49:08.681Z,22.43
2017-08-30T12:51:36.143Z,22.30
2017-08-30T12:54:03.615Z,28.87
2017-08-30T12:56:31.099Z,19.10
2017-08-30T12:58:58.554Z,15.70
2017-08-30T13:01:26.022Z,23.67
2017-08-30T13:03:53.496Z,18.80
2017-08-30T13:06:20.946Z,20.50
2017-08-30T13:08:48.426Z,10.23
2017-08-30T13:11:15.878Z,34.97
2017-08-30T13:13:43.330Z,29.80
2017-08-30T13:16:10.811Z,23.50
2017-08-30T13:18:38.267Z,29.27
2017-08-30T13:21:05.758Z,18.47
2017-08-30T13:23:33.239Z,13.63
2017-08-30T13:26:00.690Z,20.87
2017-08-30T13:28:28.149Z,22.33
2017-08-30T13:30:55.627Z,23.60
2017-08-30T13:33:23.083Z,21.37
2017-08-30T13:35:50.538Z,19.50
2017-08-30T13:38:18.019Z,28.57
2017-08-30T13:40:45.474Z,18.20
2017-08-30T13:43:12.934Z,19.77
2017-08-30T13:45:40.413Z,18.67
2017-08-30T13:48:07.874Z,17.93
2017-08-30T13:50:35.330Z,16.90
2017-08-30T13:53:02.814Z,13.40
2017-08-30T13:55:30.266Z,18.50
2017-08-30T13:57:57.718Z,18.23
2017-08-30T14:00:25.196Z,24.70
2017-08-30T14:02:52.650Z,21.07
2017-08-30T14:05:20.110Z,26.17
2017-08-30T14:07:47.591Z,27.30
2017-08-30T14:10:15.048Z,22.87
2017-08-30T14:12:42.498Z,20.90
2017-08-30T14:15:09.983Z,14.93
2017-08-30T14:17:37.434Z,22.43
2017-08-30T14:20:04.886Z,19.27
2017-08-30T14:22:32.367Z,18.00
2017-08-30T14:24:59.822Z,13.17
2017-08-30T14:27:27.290Z,23.33
2017-08-30T14:29:54.774Z,27.43
2017-08-30T14:32:22.238Z,19.57
2017-08-30T14:34:49.695Z,17.33
2017-08-30T14:37:17.178Z,19.33
2017-08-30T14:39:44.635Z,38.73
2017-08-30T14:42:12.088Z,20.27
2017-08-30T14:44:39.594Z,14.67
2017-08-30T14:47:07.046Z,16.00
2017-08-30T14:49:34.499Z,27.93
2017-08-30T14:52:02.053Z,17.03
2017-08-30T14:54:29.514Z,18.63
2017-08-30T14:56:56.977Z,19.17
2017-08-30T14:59:25.519Z,36.30
2017-08-30T15:01:52.975Z,18.23
2017-08-30T15:04:20.430Z,26.50
2017-08-30T15:06:47.938Z,17.73
2017-08-30T15:09:15.394Z,25.30
2017-08-30T15:11:42.851Z,25.13
2017-08-30T15:14:10.330Z,14.77
2017-08-30T15:16:37.783Z,26.30
2017-08-30T15:19:05.235Z,18.07
2017-08-30T15:21:32.722Z,32.73
2017-08-30T15:24:00.186Z,38.67
2017-08-30T15:26:27.642Z,33.50
2017-08-30T15:28:55.118Z,25.97
2017-08-30T15:31:22.575Z,20.03
2017-08-30T15:33:50.035Z,27.43
2017-08-30T15:36:17.536Z,19.50
2017-08-30T15:38:44.999Z,23.53
2017-08-30T15:41:12.458Z,18.30
2017-08-30T15:43:39.946Z,23.67
2017-08-30T15:46:07.398Z,21.53
2017-08-30T15:48:34.849Z,15.83
2017-08-30T15:51:02.327Z,24.70
2017-08-30T15:53:29.783Z,25.33
2017-08-30T15:55:57.266Z,28.03
2017-08-30T15:58:24.742Z,21.00
2017-08-30T16:00:52.198Z,26.10
2017-08-30T16:03:19.670Z,16.03
2017-08-30T16:05:47.123Z,22.70
2017-08-30T16:08:14.582Z,15.33
2017-08-30T16:10:42.074Z,16.93
2017-08-30T16:13:09.542Z,19.17
2017-08-30T16:15:37.009Z,13.83
2017-08-30T16:18:04.491Z,19.80
2017-08-30T16:20:31.958Z,18.33
2017-08-30T16:22:59.438Z,14.97
2017-08-30T16:25:26.894Z,17.83
2017-08-30T16:27:54.371Z,19.50
2017-08-30T16:30:21.847Z,17.17
2017-08-30T16:32:49.302Z,30.07
2017-08-30T16:35:16.787Z,25.00
2017-08-30T16:37:44.243Z,19.57
2017-08-30T16:40:11.716Z,28.77
2017-08-30T16:42:39.199Z,21.70
2017-08-30T16:45:06.655Z,28.77
2017-08-30T16:47:34.130Z,20.83
2017-08-30T16:50:01.618Z,30.33
2017-08-30T16:52:29.074Z,26.30
2017-08-30T16:54:56.550Z,42.80
2017-08-30T16:57:24.034Z,26.50
2017-08-30T16:59:51.627Z,23.37
2017-08-30T17:02:19.087Z,40.87
2017-08-30T17:04:46.574Z,29.57
2017-08-30T17:07:14.065Z,36.00
2017-08-30T17:09:41.523Z,31.23
2017-08-30T17:12:08.984Z,31.23
2017-08-30T17:14:36.478Z,30.40
2017-08-30T17:17:04.023Z,30.10
2017-08-30T17:19:31.525Z,33.97
2017-08-30T17:21:59.014Z,35.97
2017-08-30T17:24:26.474Z,30.60
2017-08-30T17:26:53.943Z,36.07
2017-08-30T17:29:21.427Z,26.23
2017-08-30T17:31:48.887Z,31.10
2017-08-30T17:34:16.358Z,34.73
2017-08-30T17:36:43.838Z,31.40
2017-08-30T17:39:11.298Z,25.53
2017-08-30T17:41:38.759Z,28.30
2017-08-30T17:44:06.243Z,45.90
2017-08-30T17:46:33.702Z,23.93
2017-08-30T17:49:01.179Z,24.10
2017-08-30T17:51:28.694Z,39.83
2017-08-30T17:53:56.171Z,21.60
2017-08-30T17:56:23.647Z,33.17
2017-08-30T17:58:51.220Z,28.00
2017-08-30T18:01:18.704Z,24.80
2017-08-30T18:03:46.167Z,26.40
2017-08-30T18:06:13.663Z,27.00
2017-08-30T18:08:41.135Z,25.40
2017-08-30T18:11:08.619Z,32.90
2017-08-30T18:13:36.097Z,28.50
2017-08-30T18:16:03.567Z,23.03
2017-08-30T18:18:31.035Z,22.57
2017-08-30T18:20:58.523Z,36.67
2017-08-30T18:23:25.986Z,25.90
2017-08-30T18:25:53.459Z,25.37
2017-08-30T18:28:20.946Z,20.60
2017-08-30T18:30:48.410Z,27.17
2017-08-30T18:33:15.866Z,25.03
2017-08-30T18:35:43.384Z,27.00
2017-08-30T18:38:10.850Z,25.87
2017-08-30T18:40:38.314Z,36.77
2017-08-30T18:43:05.811Z,24.47
2017-08-30T18:45:33.270Z,33.33
2017-08-30T18:48:00.734Z,24.90
2017-08-30T18:50:28.238Z,27.03
2017-08-30T18:52:55.720Z,29.53
2017-08-30T18:55:23.269Z,31.07
2017-08-30T18:57:50.759Z,23.80
2017-08-30T19:00:18.233Z,23.00
2017-08-30T19:02:45.695Z,25.80
2017-08-30T19:05:13.206Z,24.90
2017-08-30T19:07:40.663Z,25.13
2017-08-30T19:10:08.121Z,22.77
2017-08-30T19:12:35.605Z,20.43
2017-08-30T19:15:03.062Z,31.67
2017-08-30T19:17:30.515Z,27.43
2017-08-30T19:19:58.003Z,32.70
2017-08-30T19:22:25.466Z,23.17
2017-08-30T19:24:52.934Z,24.20
2017-08-30T19:27:20.417Z,36.80
2017-08-30T19:29:47.882Z,30.50
2017-08-30T19:32:15.361Z,26.23
2017-08-30T19:34:42.847Z,21.50
2017-08-30T19:37:10.307Z,22.83
2017-08-30T19:39:37.770Z,29.27
2017-08-30T19:42:05.285Z,23.10
2017-08-30T19:44:32.892Z,28.00
2017-08-30T19:47:01.257Z,26.43
2017-08-30T19:49:28.752Z,23.27
2017-08-30T19:51:56.478Z,22.13
2017-08-30T19:54:23.959Z,31.10
2017-08-30T19:56:51.446Z,24.10
2017-08-30T19:59:18.907Z,33.63
2017-08-30T20:01:46.390Z,28.70
2017-08-30T20:04:13.878Z,21.30
2017-08-30T20:06:41.382Z,25.30
2017-08-30T20:09:09.086Z,16.27
2017-08-30T20:11:36.583Z,28.20
2017-08-30T20:14:04.042Z,27.57
2017-08-30T20:16:32.758Z,23.90
2017-08-30T20:19:00.256Z,28.70
2017-08-30T20:21:27.722Z,23.17
2017-08-30T20:23:56.062Z,25.00
2017-08-30T20:26:23.520Z,21.93
2017-08-30T20:28:50.987Z,22.70
2017-08-30T20:31:18.474Z,23.10
2017-08-30T20:33:45.950Z,19.30
2017-08-30T20:36:13.439Z,21.03
2017-08-30T20:38:40.938Z,28.33
2017-08-30T20:41:08.429Z,25.40
2017-08-30T20:43:35.915Z,20.10
2017-08-30T20:46:03.390Z,24.20
2017-08-30T20:48:31.579Z,21.97
2017-08-30T20:50:59.087Z,20.30
2017-08-30T20:53:26.558Z,23.97
2017-08-30T20:55:54.039Z,27.70
2017-08-30T20:58:21.498Z,20.80
2017-08-30T21:00:48.982Z,57.27
2017-08-30T21:03:16.475Z,36.27
2017-08-30T21:05:43.939Z,62.17
2017-08-30T21:08:11.403Z,29.70
2017-08-30T21:10:38.906Z,34.93
2017-08-30T21:13:06.366Z,27.10
2017-08-30T21:15:33.832Z,27.37
2017-08-30T21:18:01.340Z,31.13
2017-08-30T21:20:28.999Z,29.57
2017-08-30T21:22:56.466Z,30.40
2017-08-30T21:25:23.938Z,31.23
2017-08-30T21:27:51.443Z,31.77
2017-08-30T21:30:18.940Z,35.17
2017-08-30T21:32:46.416Z,43.87
2017-08-30T21:35:13.919Z,43.17
2017-08-30T21:37:41.406Z,26.40
2017-08-30T21:40:08.874Z,36.80
2017-08-30T21:42:36.398Z,65.13
2017-08-30T21:45:03.862Z,38.57
2017-08-30T21:47:31.323Z,62.67
2017-08-30T21:49:58.802Z,44.03
2017-08-30T21:52:26.266Z,58.30
2017-08-30T21:54:53.727Z,35.97
2017-08-30T21:57:21.215Z,46.60
2017-08-30T21:59:48.690Z,39.87
2017-08-30T22:02:16.159Z,37.40
2017-08-30T22:04:43.647Z,40.10
2017-08-30T22:07:11.118Z,33.17
2017-08-30T22:09:38.578Z,25.93
2017-08-30T22:12:06.106Z,25.43
2017-08-30T22:14:33.572Z,31.37
2017-08-30T22:17:01.030Z,29.50
2017-08-30T22:19:28.510Z,25.50
2017-08-30T22:21:55.971Z,31.13
2017-08-30T22:24:23.430Z,22.43
2017-08-30T22:26:50.914Z,19.57
2017-08-30T22:29:18.374Z,28.20
2017-08-30T22:31:45.834Z,26.83
2017-08-30T22:34:13.319Z,26.13
2017-08-30T22:36:40.782Z,16.73
2017-08-30T22:39:08.239Z,19.13
2017-08-30T22:41:35.727Z,16.17
2017-08-30T22:44:03.194Z,16.03
2017-08-30T22:46:30.658Z,15.43
2017-08-30T22:48:58.138Z,15.97
2017-08-30T22:51:25.602Z,15.97
2017-08-30T22:53:53.058Z,13.13
2017-08-30T22:56:20.539Z,10.43
2017-08-30T22:58:48.002Z,12.97
2017-08-30T23:01:15.475Z,28.17
2017-08-30T23:03:42.946Z,8.23
2017-08-30T23:06:10.398Z,14.10
2017-08-30T23:08:37.892Z,20.80
2017-08-30T23:11:05.371Z,12.83
2017-08-30T23:13:32.862Z,17.40
2017-08-30T23:16:00.355Z,16.47
2017-08-30T23:18:28.029Z,9.97
2017-08-30T23:20:55.503Z,15.63
2017-08-30T23:23:22.982Z,12.33
2017-08-30T23:25:50.438Z,10.87
2017-08-30T23:28:17.895Z,14.83
2017-08-30T23:30:45.370Z,14.70
2017-08-30T23:33:12.847Z,26.47
2017-08-30T23:35:40.306Z,17.83
2017-08-30T23:38:07.803Z,10.87
2017-08-30T23:40:35.287Z,19.40
2017-08-30T23:57:04.311Z,15.27
2017-08-30T23:59:31.790Z,16.47
